sensor_id;sensor_type;location;lat;lon;timestamp;temperature;humidity
32446;DHT22;18899;50.748;7.102;2023-07-08T00:01:10;20.40;99.90
32446;DHT22;18899;50.748;7.102;2023-07-08T00:03:37;20.50;99.90
32446;DHT22;18899;50.748;7.102;2023-07-08T00:06:03;20.40;99.90
32446;DHT22;18899;50.748;7.102;2023-07-08T00:08:28;20.50;99.90
32446;DHT22;18899;50.748;7.102;2023-07-08T00:10:55;20.40;99.90
32446;DHT22;18899;50.748;7.102;2023-07-08T00:13:20;20.40;99.90
32446;DHT22;18899;50.748;7.102;2023-07-08T00:15:46;20.30;99.90
32446;DHT22;18899;50.748;7.102;2023-07-08T00:18:14;20.30;99.90
32446;DHT22;18899;50.748;7.102;2023-07-08T00:20:50;20.10;99.90
32446;DHT22;18899;50.748;7.102;2023-07-08T00:23:16;20.00;99.90
32446;DHT22;18899;50.748;7.102;2023-07-08T00:25:42;20.00;99.90
32446;DHT22;18899;50.748;7.102;2023-07-08T00:28:12;20.00;99.90
32446;DHT22;18899;50.748;7.102;2023-07-08T00:30:39;20.00;99.90
32446;DHT22;18899;50.748;7.102;2023-07-08T00:33:05;20.10;99.90
32446;DHT22;18899;50.748;7.102;2023-07-08T00:35:35;20.20;99.90
32446;DHT22;18899;50.748;7.102;2023-07-08T00:38:01;20.10;99.90
32446;DHT22;18899;50.748;7.102;2023-07-08T00:40:29;20.10;99.90
32446;DHT22;18899;50.748;7.102;2023-07-08T00:43:02;19.90;99.90
32446;DHT22;18899;50.748;7.102;2023-07-08T00:48:19;19.80;99.90
32446;DHT22;18899;50.748;7.102;2023-07-08T00:50:46;19.80;99.90
32446;DHT22;18899;50.748;7.102;2023-07-08T00:53:36;19.80;99.90
32446;DHT22;18899;50.748;7.102;2023-07-08T00:56:20;19.70;99.90
32446;DHT22;18899;50.748;7.102;2023-07-08T00:59:06;19.70;99.90
32446;DHT22;18899;50.748;7.102;2023-07-08T01:01:36;19.70;99.90
32446;DHT22;18899;50.748;7.102;2023-07-08T01:04:08;19.70;99.90
32446;DHT22;18899;50.748;7.102;2023-07-08T01:06:36;19.70;99.90
32446;DHT22;18899;50.748;7.102;2023-07-08T01:09:06;19.70;99.90
32446;DHT22;18899;50.748;7.102;2023-07-08T01:11:34;19.70;99.90
32446;DHT22;18899;50.748;7.102;2023-07-08T01:14:03;19.60;99.90
32446;DHT22;18899;50.748;7.102;2023-07-08T01:16:29;19.50;99.90
32446;DHT22;18899;50.748;7.102;2023-07-08T01:18:59;19.50;99.90
32446;DHT22;18899;50.748;7.102;2023-07-08T01:23:57;19.50;99.90
32446;DHT22;18899;50.748;7.102;2023-07-08T01:26:24;19.40;99.90
32446;DHT22;18899;50.748;7.102;2023-07-08T01:28:52;19.40;99.90
32446;DHT22;18899;50.748;7.102;2023-07-08T01:31:18;19.40;99.90
32446;DHT22;18899;50.748;7.102;2023-07-08T01:33:44;19.40;99.90
32446;DHT22;18899;50.748;7.102;2023-07-08T01:36:11;19.40;99.90
32446;DHT22;18899;50.748;7.102;2023-07-08T01:38:37;19.40;99.90
32446;DHT22;18899;50.748;7.102;2023-07-08T01:41:03;19.40;99.90
32446;DHT22;18899;50.748;7.102;2023-07-08T01:43:29;19.40;99.90
32446;DHT22;18899;50.748;7.102;2023-07-08T01:45:55;19.40;99.90
32446;DHT22;18899;50.748;7.102;2023-07-08T01:48:24;19.30;99.90
32446;DHT22;18899;50.748;7.102;2023-07-08T01:51:00;19.30;99.90
32446;DHT22;18899;50.748;7.102;2023-07-08T01:53:40;19.20;99.90
32446;DHT22;18899;50.748;7.102;2023-07-08T01:56:08;19.10;99.90
32446;DHT22;18899;50.748;7.102;2023-07-08T01:58:34;19.00;99.90
32446;DHT22;18899;50.748;7.102;2023-07-08T02:01:00;18.80;99.90
32446;DHT22;18899;50.748;7.102;2023-07-08T02:03:26;18.70;99.90
32446;DHT22;18899;50.748;7.102;2023-07-08T02:05:51;18.60;99.90
32446;DHT22;18899;50.748;7.102;2023-07-08T02:08:17;18.60;99.90
32446;DHT22;18899;50.748;7.102;2023-07-08T02:10:46;18.60;99.90
32446;DHT22;18899;50.748;7.102;2023-07-08T02:13:11;18.60;99.90
32446;DHT22;18899;50.748;7.102;2023-07-08T02:15:37;18.60;99.90
32446;DHT22;18899;50.748;7.102;2023-07-08T02:18:02;18.50;99.90
32446;DHT22;18899;50.748;7.102;2023-07-08T02:20:28;18.50;99.90
32446;DHT22;18899;50.748;7.102;2023-07-08T02:22:53;18.50;99.90
32446;DHT22;18899;50.748;7.102;2023-07-08T02:25:19;18.40;99.90
32446;DHT22;18899;50.748;7.102;2023-07-08T02:27:44;18.50;99.90
32446;DHT22;18899;50.748;7.102;2023-07-08T02:30:10;18.40;99.90
32446;DHT22;18899;50.748;7.102;2023-07-08T02:32:36;18.30;99.90
32446;DHT22;18899;50.748;7.102;2023-07-08T02:35:07;18.40;99.90
32446;DHT22;18899;50.748;7.102;2023-07-08T02:37:33;18.30;99.90
32446;DHT22;18899;50.748;7.102;2023-07-08T02:39:59;18.20;99.90
32446;DHT22;18899;50.748;7.102;2023-07-08T02:42:24;18.20;99.90
32446;DHT22;18899;50.748;7.102;2023-07-08T02:44:50;18.10;99.90
32446;DHT22;18899;50.748;7.102;2023-07-08T02:47:15;18.10;99.90
32446;DHT22;18899;50.748;7.102;2023-07-08T02:49:41;18.00;99.90
32446;DHT22;18899;50.748;7.102;2023-07-08T02:52:07;18.00;99.90
32446;DHT22;18899;50.748;7.102;2023-07-08T02:54:32;17.90;99.90
32446;DHT22;18899;50.748;7.102;2023-07-08T02:56:58;17.90;99.90
32446;DHT22;18899;50.748;7.102;2023-07-08T02:59:23;17.90;99.90
32446;DHT22;18899;50.748;7.102;2023-07-08T03:01:49;17.80;99.90
32446;DHT22;18899;50.748;7.102;2023-07-08T03:04:15;17.80;99.90
32446;DHT22;18899;50.748;7.102;2023-07-08T03:06:44;17.90;99.90
32446;DHT22;18899;50.748;7.102;2023-07-08T03:09:12;17.80;99.90
32446;DHT22;18899;50.748;7.102;2023-07-08T03:11:39;17.90;99.90
32446;DHT22;18899;50.748;7.102;2023-07-08T03:14:05;17.80;99.90
32446;DHT22;18899;50.748;7.102;2023-07-08T03:16:31;17.90;99.90
32446;DHT22;18899;50.748;7.102;2023-07-08T03:18:57;17.80;99.90
32446;DHT22;18899;50.748;7.102;2023-07-08T03:21:23;17.90;99.90
32446;DHT22;18899;50.748;7.102;2023-07-08T03:23:49;17.90;99.90
32446;DHT22;18899;50.748;7.102;2023-07-08T03:26:17;17.90;99.90
32446;DHT22;18899;50.748;7.102;2023-07-08T03:28:44;18.00;99.90
32446;DHT22;18899;50.748;7.102;2023-07-08T03:31:10;18.10;99.90
32446;DHT22;18899;50.748;7.102;2023-07-08T03:33:36;18.20;99.90
32446;DHT22;18899;50.748;7.102;2023-07-08T03:36:03;18.20;99.90
32446;DHT22;18899;50.748;7.102;2023-07-08T03:38:29;18.10;99.90
32446;DHT22;18899;50.748;7.102;2023-07-08T03:40:54;18.10;99.90
32446;DHT22;18899;50.748;7.102;2023-07-08T03:43:20;18.00;99.90
32446;DHT22;18899;50.748;7.102;2023-07-08T03:45:46;18.00;99.90
32446;DHT22;18899;50.748;7.102;2023-07-08T03:48:12;18.00;99.90
32446;DHT22;18899;50.748;7.102;2023-07-08T03:50:38;18.20;99.90
32446;DHT22;18899;50.748;7.102;2023-07-08T03:53:04;18.20;99.90
32446;DHT22;18899;50.748;7.102;2023-07-08T03:55:29;18.30;99.90
32446;DHT22;18899;50.748;7.102;2023-07-08T03:57:55;18.30;99.90
32446;DHT22;18899;50.748;7.102;2023-07-08T04:00:20;18.40;99.90
32446;DHT22;18899;50.748;7.102;2023-07-08T04:02:46;18.40;99.90
32446;DHT22;18899;50.748;7.102;2023-07-08T04:05:17;18.50;99.90
32446;DHT22;18899;50.748;7.102;2023-07-08T04:07:43;18.50;99.90
32446;DHT22;18899;50.748;7.102;2023-07-08T04:10:11;18.60;99.90
32446;DHT22;18899;50.748;7.102;2023-07-08T04:12:38;18.60;99.90
32446;DHT22;18899;50.748;7.102;2023-07-08T04:15:04;18.60;99.90
32446;DHT22;18899;50.748;7.102;2023-07-08T04:17:30;18.70;99.90
32446;DHT22;18899;50.748;7.102;2023-07-08T04:19:55;18.70;99.90
32446;DHT22;18899;50.748;7.102;2023-07-08T04:22:29;18.80;99.90
32446;DHT22;18899;50.748;7.102;2023-07-08T04:24:55;18.80;99.90
32446;DHT22;18899;50.748;7.102;2023-07-08T04:27:20;18.90;99.90
32446;DHT22;18899;50.748;7.102;2023-07-08T04:29:46;18.90;99.90
32446;DHT22;18899;50.748;7.102;2023-07-08T04:32:12;19.00;99.90
32446;DHT22;18899;50.748;7.102;2023-07-08T04:34:37;19.00;99.90
32446;DHT22;18899;50.748;7.102;2023-07-08T04:37:03;19.20;99.90
32446;DHT22;18899;50.748;7.102;2023-07-08T04:39:30;19.40;99.90
32446;DHT22;18899;50.748;7.102;2023-07-08T04:41:56;19.50;99.90
32446;DHT22;18899;50.748;7.102;2023-07-08T04:44:22;19.70;99.90
32446;DHT22;18899;50.748;7.102;2023-07-08T04:46:54;19.90;99.90
32446;DHT22;18899;50.748;7.102;2023-07-08T04:49:22;20.00;99.90
32446;DHT22;18899;50.748;7.102;2023-07-08T04:51:49;20.00;99.90
32446;DHT22;18899;50.748;7.102;2023-07-08T04:54:15;20.00;99.90
32446;DHT22;18899;50.748;7.102;2023-07-08T04:56:42;20.00;99.90
32446;DHT22;18899;50.748;7.102;2023-07-08T04:59:11;20.00;99.90
32446;DHT22;18899;50.748;7.102;2023-07-08T05:01:36;20.10;99.90
32446;DHT22;18899;50.748;7.102;2023-07-08T05:04:03;20.30;99.90
32446;DHT22;18899;50.748;7.102;2023-07-08T05:06:31;20.30;99.90
32446;DHT22;18899;50.748;7.102;2023-07-08T05:08:58;20.30;99.90
32446;DHT22;18899;50.748;7.102;2023-07-08T05:11:23;20.50;99.90
32446;DHT22;18899;50.748;7.102;2023-07-08T05:13:49;20.50;99.90
32446;DHT22;18899;50.748;7.102;2023-07-08T05:16:15;20.60;99.90
32446;DHT22;18899;50.748;7.102;2023-07-08T05:18:40;20.90;99.90
32446;DHT22;18899;50.748;7.102;2023-07-08T05:21:06;21.40;99.90
32446;DHT22;18899;50.748;7.102;2023-07-08T05:23:33;22.30;99.90
32446;DHT22;18899;50.748;7.102;2023-07-08T05:26:00;23.20;95.20
32446;DHT22;18899;50.748;7.102;2023-07-08T05:28:26;23.60;92.60
32446;DHT22;18899;50.748;7.102;2023-07-08T05:30:55;23.90;90.80
32446;DHT22;18899;50.748;7.102;2023-07-08T05:33:24;24.40;90.10
32446;DHT22;18899;50.748;7.102;2023-07-08T05:35:51;24.30;82.90
32446;DHT22;18899;50.748;7.102;2023-07-08T05:38:16;24.20;85.50
32446;DHT22;18899;50.748;7.102;2023-07-08T05:40:42;24.20;82.20
32446;DHT22;18899;50.748;7.102;2023-07-08T05:43:08;24.10;81.90
32446;DHT22;18899;50.748;7.102;2023-07-08T05:45:33;23.90;82.90
32446;DHT22;18899;50.748;7.102;2023-07-08T05:48:01;23.90;82.80
32446;DHT22;18899;50.748;7.102;2023-07-08T05:50:27;23.90;82.60
32446;DHT22;18899;50.748;7.102;2023-07-08T05:52:52;23.70;85.90
32446;DHT22;18899;50.748;7.102;2023-07-08T05:55:18;23.30;90.00
32446;DHT22;18899;50.748;7.102;2023-07-08T05:57:43;22.90;90.90
32446;DHT22;18899;50.748;7.102;2023-07-08T06:00:10;22.60;92.10
32446;DHT22;18899;50.748;7.102;2023-07-08T06:02:36;22.50;93.00
32446;DHT22;18899;50.748;7.102;2023-07-08T06:05:01;22.40;94.60
32446;DHT22;18899;50.748;7.102;2023-07-08T06:07:27;22.30;93.10
32446;DHT22;18899;50.748;7.102;2023-07-08T06:09:53;22.30;93.80
32446;DHT22;18899;50.748;7.102;2023-07-08T06:12:21;22.60;91.70
32446;DHT22;18899;50.748;7.102;2023-07-08T06:14:47;22.80;90.50
32446;DHT22;18899;50.748;7.102;2023-07-08T06:17:12;23.00;91.80
32446;DHT22;18899;50.748;7.102;2023-07-08T06:19:38;23.60;90.00
32446;DHT22;18899;50.748;7.102;2023-07-08T06:22:03;24.90;83.80
32446;DHT22;18899;50.748;7.102;2023-07-08T06:24:29;26.30;76.50
32446;DHT22;18899;50.748;7.102;2023-07-08T06:26:55;27.70;69.60
32446;DHT22;18899;50.748;7.102;2023-07-08T06:29:20;28.70;67.50
32446;DHT22;18899;50.748;7.102;2023-07-08T06:31:46;29.70;58.80
32446;DHT22;18899;50.748;7.102;2023-07-08T06:34:11;30.40;55.20
32446;DHT22;18899;50.748;7.102;2023-07-08T06:36:37;30.60;56.50
32446;DHT22;18899;50.748;7.102;2023-07-08T06:39:02;30.30;55.10
32446;DHT22;18899;50.748;7.102;2023-07-08T06:41:28;29.90;54.10
32446;DHT22;18899;50.748;7.102;2023-07-08T06:43:54;29.80;53.40
32446;DHT22;18899;50.748;7.102;2023-07-08T06:46:20;29.70;54.90
32446;DHT22;18899;50.748;7.102;2023-07-08T06:48:45;30.00;54.70
32446;DHT22;18899;50.748;7.102;2023-07-08T06:51:11;30.60;52.20
32446;DHT22;18899;50.748;7.102;2023-07-08T06:53:36;31.00;50.40
32446;DHT22;18899;50.748;7.102;2023-07-08T06:56:02;30.70;53.50
32446;DHT22;18899;50.748;7.102;2023-07-08T06:58:28;30.10;54.00
32446;DHT22;18899;50.748;7.102;2023-07-08T07:00:54;30.10;51.10
32446;DHT22;18899;50.748;7.102;2023-07-08T07:03:19;30.50;52.20
32446;DHT22;18899;50.748;7.102;2023-07-08T07:05:45;30.20;52.30
32446;DHT22;18899;50.748;7.102;2023-07-08T07:08:10;30.30;51.70
32446;DHT22;18899;50.748;7.102;2023-07-08T07:10:36;29.80;53.40
32446;DHT22;18899;50.748;7.102;2023-07-08T07:13:02;29.50;56.30
32446;DHT22;18899;50.748;7.102;2023-07-08T07:15:28;28.70;57.10
32446;DHT22;18899;50.748;7.102;2023-07-08T07:17:56;28.30;57.80
32446;DHT22;18899;50.748;7.102;2023-07-08T07:20:22;28.10;60.60
32446;DHT22;18899;50.748;7.102;2023-07-08T07:22:47;28.00;60.00
32446;DHT22;18899;50.748;7.102;2023-07-08T07:25:13;28.20;58.60
32446;DHT22;18899;50.748;7.102;2023-07-08T07:27:38;29.30;55.90
32446;DHT22;18899;50.748;7.102;2023-07-08T07:30:04;31.00;52.60
32446;DHT22;18899;50.748;7.102;2023-07-08T07:32:30;32.80;50.80
32446;DHT22;18899;50.748;7.102;2023-07-08T07:34:58;33.60;48.90
32446;DHT22;18899;50.748;7.102;2023-07-08T07:37:25;34.20;46.60
32446;DHT22;18899;50.748;7.102;2023-07-08T07:39:50;33.70;43.60
32446;DHT22;18899;50.748;7.102;2023-07-08T07:42:17;33.20;48.00
32446;DHT22;18899;50.748;7.102;2023-07-08T07:44:43;33.90;46.30
32446;DHT22;18899;50.748;7.102;2023-07-08T07:47:09;35.00;45.80
32446;DHT22;18899;50.748;7.102;2023-07-08T07:49:35;35.40;43.20
32446;DHT22;18899;50.748;7.102;2023-07-08T07:52:00;36.10;43.90
32446;DHT22;18899;50.748;7.102;2023-07-08T07:54:26;36.60;40.30
32446;DHT22;18899;50.748;7.102;2023-07-08T07:56:53;36.90;40.30
32446;DHT22;18899;50.748;7.102;2023-07-08T07:59:19;37.60;40.80
32446;DHT22;18899;50.748;7.102;2023-07-08T08:01:45;38.20;37.50
32446;DHT22;18899;50.748;7.102;2023-07-08T08:04:11;38.70;36.30
32446;DHT22;18899;50.748;7.102;2023-07-08T08:06:37;38.90;36.80
32446;DHT22;18899;50.748;7.102;2023-07-08T08:09:04;38.20;36.50
32446;DHT22;18899;50.748;7.102;2023-07-08T08:11:29;38.60;36.10
32446;DHT22;18899;50.748;7.102;2023-07-08T08:13:56;38.40;36.60
32446;DHT22;18899;50.748;7.102;2023-07-08T08:16:21;38.20;35.30
32446;DHT22;18899;50.748;7.102;2023-07-08T08:18:47;38.70;35.50
32446;DHT22;18899;50.748;7.102;2023-07-08T08:21:13;38.80;35.30
32446;DHT22;18899;50.748;7.102;2023-07-08T08:23:39;38.10;35.90
32446;DHT22;18899;50.748;7.102;2023-07-08T08:26:04;38.30;36.00
32446;DHT22;18899;50.748;7.102;2023-07-08T08:28:30;38.60;35.40
32446;DHT22;18899;50.748;7.102;2023-07-08T08:30:55;39.40;33.30
32446;DHT22;18899;50.748;7.102;2023-07-08T08:33:22;38.80;35.10
32446;DHT22;18899;50.748;7.102;2023-07-08T08:35:47;38.60;35.30
32446;DHT22;18899;50.748;7.102;2023-07-08T08:38:13;38.30;35.90
32446;DHT22;18899;50.748;7.102;2023-07-08T08:40:42;38.20;36.30
32446;DHT22;18899;50.748;7.102;2023-07-08T08:43:23;38.80;33.60
32446;DHT22;18899;50.748;7.102;2023-07-08T08:49:32;38.90;34.40
32446;DHT22;18899;50.748;7.102;2023-07-08T08:51:37;38.70;36.10
32446;DHT22;18899;50.748;7.102;2023-07-08T08:54:03;38.20;36.10
32446;DHT22;18899;50.748;7.102;2023-07-08T08:56:34;38.30;34.80
32446;DHT22;18899;50.748;7.102;2023-07-08T08:59:57;38.70;36.10
32446;DHT22;18899;50.748;7.102;2023-07-08T09:01:58;38.80;35.60
32446;DHT22;18899;50.748;7.102;2023-07-08T09:04:33;37.80;36.40
32446;DHT22;18899;50.748;7.102;2023-07-08T09:07:12;37.80;35.70
32446;DHT22;18899;50.748;7.102;2023-07-08T09:10:03;38.10;35.20
32446;DHT22;18899;50.748;7.102;2023-07-08T09:12:30;38.40;38.10
32446;DHT22;18899;50.748;7.102;2023-07-08T09:14:57;38.70;36.20
32446;DHT22;18899;50.748;7.102;2023-07-08T09:17:27;38.80;34.90
32446;DHT22;18899;50.748;7.102;2023-07-08T09:23:32;39.50;34.30
32446;DHT22;18899;50.748;7.102;2023-07-08T09:25:51;38.40;36.00
32446;DHT22;18899;50.748;7.102;2023-07-08T09:28:18;38.40;36.10
32446;DHT22;18899;50.748;7.102;2023-07-08T09:30:48;38.30;38.30
32446;DHT22;18899;50.748;7.102;2023-07-08T09:33:17;38.20;35.40
32446;DHT22;18899;50.748;7.102;2023-07-08T09:35:46;38.70;36.00
32446;DHT22;18899;50.748;7.102;2023-07-08T09:38:21;38.90;36.30
32446;DHT22;18899;50.748;7.102;2023-07-08T09:40:52;38.80;37.50
32446;DHT22;18899;50.748;7.102;2023-07-08T09:43:27;39.40;35.60
32446;DHT22;18899;50.748;7.102;2023-07-08T09:45:57;38.70;38.40
32446;DHT22;18899;50.748;7.102;2023-07-08T09:48:34;37.70;37.80
32446;DHT22;18899;50.748;7.102;2023-07-08T09:51:00;37.00;38.20
32446;DHT22;18899;50.748;7.102;2023-07-08T09:53:27;37.40;37.90
32446;DHT22;18899;50.748;7.102;2023-07-08T09:55:53;37.40;36.70
32446;DHT22;18899;50.748;7.102;2023-07-08T09:58:30;37.60;37.50
32446;DHT22;18899;50.748;7.102;2023-07-08T10:01:00;37.80;38.60
32446;DHT22;18899;50.748;7.102;2023-07-08T10:03:29;37.80;37.90
32446;DHT22;18899;50.748;7.102;2023-07-08T10:05:58;38.30;37.60
32446;DHT22;18899;50.748;7.102;2023-07-08T10:08:34;39.00;38.10
32446;DHT22;18899;50.748;7.102;2023-07-08T10:13:47;39.00;36.80
32446;DHT22;18899;50.748;7.102;2023-07-08T10:16:24;37.90;37.70
32446;DHT22;18899;50.748;7.102;2023-07-08T10:18:50;37.70;38.60
32446;DHT22;18899;50.748;7.102;2023-07-08T10:21:40;38.30;37.10
32446;DHT22;18899;50.748;7.102;2023-07-08T10:27:29;37.90;38.90
32446;DHT22;18899;50.748;7.102;2023-07-08T10:32:44;38.10;36.20
32446;DHT22;18899;50.748;7.102;2023-07-08T10:35:33;38.50;35.90
32446;DHT22;18899;50.748;7.102;2023-07-08T10:40:56;39.20;36.30
32446;DHT22;18899;50.748;7.102;2023-07-08T10:43:37;39.30;35.40
32446;DHT22;18899;50.748;7.102;2023-07-08T10:52:05;39.60;33.50
32446;DHT22;18899;50.748;7.102;2023-07-08T10:57:48;39.20;36.30
32446;DHT22;18899;50.748;7.102;2023-07-08T11:00:43;37.80;38.50
32446;DHT22;18899;50.748;7.102;2023-07-08T11:03:27;36.30;41.00
32446;DHT22;18899;50.748;7.102;2023-07-08T11:08:38;34.10;42.70
32446;DHT22;18899;50.748;7.102;2023-07-08T11:13:45;32.90;43.90
32446;DHT22;18899;50.748;7.102;2023-07-08T11:16:14;32.80;48.10
32446;DHT22;18899;50.748;7.102;2023-07-08T11:21:34;32.40;44.50
32446;DHT22;18899;50.748;7.102;2023-07-08T11:24:17;32.40;46.80
32446;DHT22;18899;50.748;7.102;2023-07-08T11:26:50;32.30;44.10
32446;DHT22;18899;50.748;7.102;2023-07-08T11:29:22;32.30;45.80
32446;DHT22;18899;50.748;7.102;2023-07-08T11:31:49;32.40;45.20
32446;DHT22;18899;50.748;7.102;2023-07-08T11:34:18;32.50;45.10
32446;DHT22;18899;50.748;7.102;2023-07-08T11:36:45;32.40;47.20
32446;DHT22;18899;50.748;7.102;2023-07-08T11:39:33;32.50;44.00
32446;DHT22;18899;50.748;7.102;2023-07-08T11:42:59;32.50;46.50
32446;DHT22;18899;50.748;7.102;2023-07-08T11:45:13;32.50;44.10
32446;DHT22;18899;50.748;7.102;2023-07-08T11:47:44;32.40;44.80
32446;DHT22;18899;50.748;7.102;2023-07-08T11:50:28;32.30;47.40
32446;DHT22;18899;50.748;7.102;2023-07-08T11:53:10;32.30;45.40
32446;DHT22;18899;50.748;7.102;2023-07-08T11:55:55;32.30;45.20
32446;DHT22;18899;50.748;7.102;2023-07-08T12:01:16;32.20;46.50
32446;DHT22;18899;50.748;7.102;2023-07-08T12:07:01;32.00;44.90
32446;DHT22;18899;50.748;7.102;2023-07-08T12:09:30;32.00;48.30
32446;DHT22;18899;50.748;7.102;2023-07-08T12:12:03;32.00;45.20
32446;DHT22;18899;50.748;7.102;2023-07-08T12:14:31;32.10;47.80
32446;DHT22;18899;50.748;7.102;2023-07-08T12:16:57;32.10;47.40
32446;DHT22;18899;50.748;7.102;2023-07-08T12:19:24;32.00;47.50
32446;DHT22;18899;50.748;7.102;2023-07-08T12:21:51;32.00;45.90
32446;DHT22;18899;50.748;7.102;2023-07-08T12:24:18;32.00;47.50
32446;DHT22;18899;50.748;7.102;2023-07-08T12:26:44;32.00;46.50
32446;DHT22;18899;50.748;7.102;2023-07-08T12:29:12;32.00;47.30
32446;DHT22;18899;50.748;7.102;2023-07-08T12:31:42;32.10;47.80
32446;DHT22;18899;50.748;7.102;2023-07-08T12:34:13;32.10;47.10
32446;DHT22;18899;50.748;7.102;2023-07-08T12:36:42;32.10;47.30
32446;DHT22;18899;50.748;7.102;2023-07-08T12:39:16;32.00;48.40
32446;DHT22;18899;50.748;7.102;2023-07-08T12:41:43;32.00;45.80
32446;DHT22;18899;50.748;7.102;2023-07-08T12:44:24;32.00;46.80
32446;DHT22;18899;50.748;7.102;2023-07-08T12:46:54;32.10;46.40
32446;DHT22;18899;50.748;7.102;2023-07-08T12:49:20;32.20;45.60
32446;DHT22;18899;50.748;7.102;2023-07-08T12:51:46;32.10;46.80
32446;DHT22;18899;50.748;7.102;2023-07-08T12:54:13;32.20;46.10
32446;DHT22;18899;50.748;7.102;2023-07-08T12:56:42;32.20;44.80
32446;DHT22;18899;50.748;7.102;2023-07-08T12:59:08;32.20;46.00
32446;DHT22;18899;50.748;7.102;2023-07-08T13:01:37;32.20;47.40
32446;DHT22;18899;50.748;7.102;2023-07-08T13:04:10;32.20;47.50
32446;DHT22;18899;50.748;7.102;2023-07-08T13:06:38;32.20;47.70
32446;DHT22;18899;50.748;7.102;2023-07-08T13:09:21;32.20;50.90
32446;DHT22;18899;50.748;7.102;2023-07-08T13:11:48;32.20;48.40
32446;DHT22;18899;50.748;7.102;2023-07-08T13:14:15;32.20;47.30
32446;DHT22;18899;50.748;7.102;2023-07-08T13:16:42;32.20;47.20
32446;DHT22;18899;50.748;7.102;2023-07-08T13:19:11;32.20;48.90
32446;DHT22;18899;50.748;7.102;2023-07-08T13:21:37;32.30;47.00
32446;DHT22;18899;50.748;7.102;2023-07-08T13:24:09;32.30;47.50
32446;DHT22;18899;50.748;7.102;2023-07-08T13:26:36;32.30;46.50
32446;DHT22;18899;50.748;7.102;2023-07-08T13:29:11;32.40;46.10
32446;DHT22;18899;50.748;7.102;2023-07-08T13:31:39;32.40;45.10
32446;DHT22;18899;50.748;7.102;2023-07-08T13:34:08;32.40;48.30
32446;DHT22;18899;50.748;7.102;2023-07-08T13:36:38;32.40;45.30
32446;DHT22;18899;50.748;7.102;2023-07-08T13:39:07;32.40;46.70
32446;DHT22;18899;50.748;7.102;2023-07-08T13:41:34;32.40;45.90
32446;DHT22;18899;50.748;7.102;2023-07-08T13:44:07;32.40;47.30
32446;DHT22;18899;50.748;7.102;2023-07-08T13:46:38;32.40;45.10
32446;DHT22;18899;50.748;7.102;2023-07-08T13:49:19;32.50;45.20
32446;DHT22;18899;50.748;7.102;2023-07-08T13:51:45;32.50;46.60
32446;DHT22;18899;50.748;7.102;2023-07-08T13:54:23;32.50;46.90
32446;DHT22;18899;50.748;7.102;2023-07-08T13:56:50;32.60;48.60
32446;DHT22;18899;50.748;7.102;2023-07-08T13:59:25;32.60;46.90
32446;DHT22;18899;50.748;7.102;2023-07-08T14:01:53;32.60;46.10
32446;DHT22;18899;50.748;7.102;2023-07-08T14:04:21;32.50;46.00
32446;DHT22;18899;50.748;7.102;2023-07-08T14:06:48;32.50;48.60
32446;DHT22;18899;50.748;7.102;2023-07-08T14:09:19;32.50;47.70
32446;DHT22;18899;50.748;7.102;2023-07-08T14:11:46;32.50;47.10
32446;DHT22;18899;50.748;7.102;2023-07-08T14:14:12;32.50;48.30
32446;DHT22;18899;50.748;7.102;2023-07-08T14:16:40;32.50;47.30
32446;DHT22;18899;50.748;7.102;2023-07-08T14:19:15;32.60;49.40
32446;DHT22;18899;50.748;7.102;2023-07-08T14:21:42;32.60;46.10
32446;DHT22;18899;50.748;7.102;2023-07-08T14:24:12;32.60;46.10
32446;DHT22;18899;50.748;7.102;2023-07-08T14:26:41;32.60;48.10
32446;DHT22;18899;50.748;7.102;2023-07-08T14:29:06;32.70;48.00
32446;DHT22;18899;50.748;7.102;2023-07-08T14:31:32;32.70;47.30
32446;DHT22;18899;50.748;7.102;2023-07-08T14:34:05;32.70;47.00
32446;DHT22;18899;50.748;7.102;2023-07-08T14:36:31;32.70;48.10
32446;DHT22;18899;50.748;7.102;2023-07-08T14:38:57;32.70;47.20
32446;DHT22;18899;50.748;7.102;2023-07-08T14:41:23;32.70;46.60
32446;DHT22;18899;50.748;7.102;2023-07-08T14:43:49;32.70;49.30
32446;DHT22;18899;50.748;7.102;2023-07-08T14:46:14;32.70;49.40
32446;DHT22;18899;50.748;7.102;2023-07-08T14:48:41;32.60;48.30
32446;DHT22;18899;50.748;7.102;2023-07-08T14:51:07;32.60;49.40
32446;DHT22;18899;50.748;7.102;2023-07-08T14:53:33;32.60;47.90
32446;DHT22;18899;50.748;7.102;2023-07-08T14:56:00;32.60;49.30
32446;DHT22;18899;50.748;7.102;2023-07-08T14:58:33;32.60;49.30
32446;DHT22;18899;50.748;7.102;2023-07-08T15:01:08;32.70;49.80
32446;DHT22;18899;50.748;7.102;2023-07-08T15:03:37;32.60;50.00
32446;DHT22;18899;50.748;7.102;2023-07-08T15:06:02;32.70;48.30
32446;DHT22;18899;50.748;7.102;2023-07-08T15:08:28;32.70;47.90
32446;DHT22;18899;50.748;7.102;2023-07-08T15:10:53;32.70;47.50
32446;DHT22;18899;50.748;7.102;2023-07-08T15:13:21;32.70;48.00
32446;DHT22;18899;50.748;7.102;2023-07-08T15:15:51;32.60;49.50
32446;DHT22;18899;50.748;7.102;2023-07-08T15:18:17;32.40;49.40
32446;DHT22;18899;50.748;7.102;2023-07-08T15:20:44;32.20;49.40
32446;DHT22;18899;50.748;7.102;2023-07-08T15:23:11;32.10;49.30
32446;DHT22;18899;50.748;7.102;2023-07-08T15:25:38;32.00;49.90
32446;DHT22;18899;50.748;7.102;2023-07-08T15:28:18;32.00;49.90
32446;DHT22;18899;50.748;7.102;2023-07-08T15:30:44;31.90;52.80
32446;DHT22;18899;50.748;7.102;2023-07-08T15:33:13;31.80;49.30
32446;DHT22;18899;50.748;7.102;2023-07-08T15:35:40;31.80;51.20
32446;DHT22;18899;50.748;7.102;2023-07-08T15:38:06;31.80;50.70
32446;DHT22;18899;50.748;7.102;2023-07-08T15:40:33;31.90;49.80
32446;DHT22;18899;50.748;7.102;2023-07-08T15:43:02;32.00;49.90
32446;DHT22;18899;50.748;7.102;2023-07-08T15:45:33;32.10;49.20
32446;DHT22;18899;50.748;7.102;2023-07-08T15:47:59;32.20;49.20
32446;DHT22;18899;50.748;7.102;2023-07-08T15:50:26;32.40;49.40
32446;DHT22;18899;50.748;7.102;2023-07-08T15:52:52;32.60;49.20
32446;DHT22;18899;50.748;7.102;2023-07-08T15:55:26;32.80;48.90
32446;DHT22;18899;50.748;7.102;2023-07-08T15:57:56;32.80;48.30
32446;DHT22;18899;50.748;7.102;2023-07-08T16:00:26;32.80;48.00
32446;DHT22;18899;50.748;7.102;2023-07-08T16:02:54;32.90;47.90
32446;DHT22;18899;50.748;7.102;2023-07-08T16:05:21;32.90;47.50
32446;DHT22;18899;50.748;7.102;2023-07-08T16:07:49;32.80;47.60
32446;DHT22;18899;50.748;7.102;2023-07-08T16:10:16;32.70;48.10
32446;DHT22;18899;50.748;7.102;2023-07-08T16:12:42;32.60;48.20
32446;DHT22;18899;50.748;7.102;2023-07-08T16:15:23;32.50;48.10
32446;DHT22;18899;50.748;7.102;2023-07-08T16:17:50;32.40;50.20
32446;DHT22;18899;50.748;7.102;2023-07-08T16:20:19;32.10;51.10
32446;DHT22;18899;50.748;7.102;2023-07-08T16:22:45;31.90;50.70
32446;DHT22;18899;50.748;7.102;2023-07-08T16:25:16;31.70;51.10